Time;durP1;ratioP1;P1;durP2;ratioP2;P2;SDS_P1;SDS_P2;PMS_P1;PMS_P2;Temp;Humidity;BMP_temperature;BMP_pressure;BME280_temperature;BME280_humidity;BME280_pressure;Samples;Min_cycle;Max_cycle;Signal;HPM_P1;HPM_P2
2024/04/10 00:00:56;;;;;;;4.28;1.35;;;;;;;9.72;100.00;100073.00;5294772;26;20045;-74
2024/04/10 00:03:22;;;;;;;9.80;2.03;;;;;;;9.79;100.00;100125.63;5301046;26;21048;-74
2024/04/10 00:06:04;;;;;;;3.03;1.20;;;;;;;9.78;100.00;100134.63;5300651;26;20001;-75
2024/04/10 00:08:32;;;;;;;4.57;1.67;;;;;;;9.70;100.00;100143.47;5279643;26;20006;-73
2024/04/10 00:11:00;;;;;;;4.80;1.60;;;;;;;9.68;100.00;100138.31;5296561;27;20017;-74
2024/04/10 00:13:26;;;;;;;3.10;1.30;;;;;;;9.83;100.00;100153.59;5302577;26;20034;-74
2024/04/10 00:16:03;;;;;;;3.63;1.58;;;;;;;9.84;100.00;100173.94;5302224;26;20088;-74
2024/04/10 00:18:29;;;;;;;5.95;1.58;;;;;;;9.81;100.00;100206.25;5287568;27;20031;-74
2024/04/10 00:20:56;;;;;;;5.32;2.50;;;;;;;9.80;100.00;100224.06;5298982;26;20640;-73
2024/04/10 00:23:21;;;;;;;;;;;;;;;9.82;100.00;100215.91;5297113;26;20002;-74
2024/04/10 00:25:59;;;;;;;3.72;1.90;;;;;;;9.81;100.00;100203.56;5292783;26;19926;-75
2024/04/10 00:28:25;;;;;;;5.15;1.90;;;;;;;9.77;100.00;100195.09;5279740;27;20079;-73
2024/04/10 00:30:51;;;;;;;6.10;1.85;;;;;;;9.75;100.00;100201.59;5285045;27;20016;-73
2024/04/10 00:33:18;;;;;;;;;;;;;;;9.73;100.00;100242.59;5300862;27;20020;-74
2024/04/10 00:35:53;;;;;;;13.05;2.50;;;;;;;9.72;100.00;100242.78;5286681;26;19930;-73
2024/04/10 00:38:19;;;;;;;5.45;1.40;;;;;;;9.83;100.00;100265.56;5284848;26;19998;-73
2024/04/10 00:40:52;;;;;;;7.10;2.03;;;;;;;9.65;100.00;100228.47;5274903;27;20375;-73
2024/04/10 00:44:53;;;;;;;2.95;1.75;;;;;;;9.76;100.00;100227.25;5460588;26;20352;-73
2024/04/10 00:47:20;;;;;;;5.00;1.80;;;;;;;9.86;100.00;100249.25;5424990;26;20003;-74
2024/04/10 00:49:46;;;;;;;;;;;;;;;9.88;100.00;100247.22;5423247;26;20027;-73
2024/04/10 00:52:11;;;;;;;7.63;2.50;;;;;;;9.79;100.00;100202.94;5358268;26;19932;-73
2024/04/10 00:54:37;;;;;;;5.40;2.07;;;;;;;9.97;100.00;100272.88;5389030;26;19992;-73
2024/04/10 00:57:03;;;;;;;13.77;2.42;;;;;;;9.84;100.00;100278.72;5389023;26;20039;-75
2024/04/10 00:59:29;;;;;;;7.28;2.40;;;;;;;9.79;100.00;100248.25;5387263;26;20011;-73
2024/04/10 01:01:55;;;;;;;9.25;2.65;;;;;;;9.89;100.00;100283.56;5389189;26;20324;-73
2024/04/10 01:04:20;;;;;;;5.47;1.95;;;;;;;9.91;100.00;100271.72;5388394;26;20162;-74
2024/04/10 01:06:46;;;;;;;3.77;2.47;;;;;;;9.86;100.00;100241.25;5385046;26;19999;-73
2024/04/10 01:09:11;;;;;;;7.30;2.20;;;;;;;9.84;100.00;100276.06;5357505;26;20081;-75
2024/04/10 01:11:37;;;;;;;8.53;2.73;;;;;;;9.86;100.00;100267.91;5358071;26;20051;-75
2024/04/10 01:14:02;;;;;;;5.72;2.70;;;;;;;9.87;100.00;100253.56;5357221;26;20015;-73
2024/04/10 01:16:28;;;;;;;11.30;2.90;;;;;;;9.91;100.00;100271.72;5389111;26;20032;-73
2024/04/10 01:18:53;;;;;;;9.13;3.27;;;;;;;9.78;100.00;100271.41;5389182;26;20008;-74
2024/04/10 01:21:18;;;;;;;11.17;2.97;;;;;;;9.92;100.00;100323.22;5388600;26;20242;-74
2024/04/10 01:23:44;;;;;;;13.37;2.90;;;;;;;9.99;100.00;100329.53;5387128;26;20015;-73
2024/04/10 01:26:10;;;;;;;8.38;3.20;;;;;;;9.79;100.00;100285.59;5384671;26;20008;-73
2024/04/10 01:28:35;;;;;;;9.67;3.27;;;;;;;9.68;100.00;100260.91;5387534;26;20415;-74
2024/04/10 01:31:00;;;;;;;9.93;3.00;;;;;;;9.94;100.00;100294.53;5388334;26;20019;-74
2024/04/10 01:33:27;;;;;;;10.90;2.83;;;;;;;9.93;100.00;100309.72;5389258;26;20308;-73
2024/04/10 01:35:52;;;;;;;;;;;;;;;10.03;100.00;100325.53;5389152;26;20699;-73
2024/04/10 01:38:18;;;;;;;5.55;2.28;;;;;;;9.83;100.00;100281.56;5387014;26;19934;-72
2024/04/10 01:40:43;;;;;;;5.20;2.67;;;;;;;9.94;100.00;100316.72;5386464;26;20010;-73
2024/04/10 01:43:09;;;;;;;6.40;2.55;;;;;;;9.80;100.00;100250.75;5357226;26;20729;-74
2024/04/10 01:45:36;;;;;;;11.63;3.13;;;;;;;9.92;100.00;100276.03;5388031;26;19996;-73
2024/04/10 01:48:02;;;;;;;7.68;2.85;;;;;;;9.91;100.00;100279.72;5388439;26;20138;-73
2024/04/10 01:50:28;;;;;;;10.23;2.97;;;;;;;9.92;100.00;100276.03;5388216;26;19996;-73
2024/04/10 01:52:53;;;;;;;8.10;2.67;;;;;;;9.93;100.00;100322.22;5387178;26;20133;-73
2024/04/10 01:55:19;;;;;;;10.57;2.90;;;;;;;9.85;100.00;100303.56;5375748;26;20019;-73
2024/04/10 01:57:44;;;;;;;8.30;3.08;;;;;;;9.93;100.00;100320.38;5371871;26;19992;-73
2024/04/10 02:00:10;;;;;;;4.77;2.03;;;;;;;9.80;100.00;100312.06;5371288;26;19996;-73
2024/04/10 02:02:38;;;;;;;5.30;2.13;;;;;;;9.74;100.00;100323.41;5373520;26;20035;-73
2024/04/10 02:05:04;;;;;;;7.77;3.37;;;;;;;9.90;100.00;100381.22;5372699;26;20000;-73
2024/04/10 02:07:30;;;;;;;;;;;;;;;9.92;100.00;100424.53;5372200;26;20015;-73
2024/04/10 02:09:55;;;;;;;7.68;2.78;;;;;;;9.86;100.00;100419.91;5373053;26;19925;-76
2024/04/10 02:12:20;;;;;;;5.90;2.70;;;;;;;9.73;100.00;100431.84;5373104;26;20011;-74
2024/04/10 02:14:46;;;;;;;6.47;2.63;;;;;;;9.74;100.00;100462.03;5372778;26;20027;-73
2024/04/10 02:17:11;;;;;;;6.70;2.10;;;;;;;9.92;100.00;100516.03;5373105;26;20008;-73
2024/04/10 02:19:37;;;;;;;8.63;2.90;;;;;;;9.63;100.00;100476.50;5370879;26;20078;-73
2024/04/10 02:22:03;;;;;;;9.77;2.97;;;;;;;9.82;100.00;100590.00;5370644;26;20689;-73
2024/04/10 02:24:28;;;;;;;5.25;2.65;;;;;;;9.78;100.00;100588.66;5341313;26;20081;-73
2024/04/10 02:26:54;;;;;;;7.93;3.13;;;;;;;9.83;100.00;100673.50;5371068;26;20462;-74
2024/04/10 02:29:19;;;;;;;7.07;3.13;;;;;;;9.78;100.00;100662.50;5372420;26;20008;-74
2024/04/10 02:31:45;;;;;;;11.77;4.53;;;;;;;9.92;100.00;100717.88;5372724;26;20327;-75
2024/04/10 02:34:11;;;;;;;10.77;3.80;;;;;;;9.75;100.00;100774.78;5370710;26;20036;-74
2024/04/10 02:36:36;;;;;;;9.20;3.53;;;;;;;9.52;100.00;100897.88;5372644;26;20517;-74
2024/04/10 02:39:02;;;;;;;14.37;2.90;;;;;;;9.60;100.00;100948.63;5370988;26;19997;-75
2024/04/10 02:41:28;;;;;;;8.45;2.28;;;;;;;9.38;100.00;100923.22;5371060;26;20259;-75
2024/04/10 02:43:53;;;;;;;11.13;2.60;;;;;;;9.37;100.00;100956.19;5372548;26;20414;-74
2024/04/10 02:46:18;;;;;;;4.10;2.00;;;;;;;9.12;100.00;100968.38;5370011;26;20008;-74
2024/04/10 02:48:44;;;;;;;6.40;1.60;;;;;;;9.04;100.00;101003.75;5340377;26;19997;-75
2024/04/10 02:51:10;;;;;;;4.50;2.42;;;;;;;9.01;100.00;100973.91;5372261;26;20036;-73
2024/04/10 02:53:35;;;;;;;4.50;1.25;;;;;;;8.88;100.00;100935.13;5372952;26;19996;-74
2024/04/10 02:56:00;;;;;;;4.70;1.30;;;;;;;8.90;100.00;100912.84;5368896;26;20000;-74
2024/04/10 02:58:26;;;;;;;5.43;1.83;;;;;;;9.04;100.00;100896.41;5356323;26;20012;-74
2024/04/10 03:00:53;;;;;;;6.77;1.10;;;;;;;8.88;100.00;100802.00;5370931;26;20098;-74
2024/04/10 03:03:20;;;;;;;4.25;1.02;;;;;;;8.78;100.00;100784.41;5369014;26;20001;-73
2024/04/10 03:05:46;;;;;;;6.50;1.83;;;;;;;8.73;100.00;100834.59;5371467;26;19996;-74
2024/04/10 03:08:13;;;;;;;6.70;1.73;;;;;;;8.61;100.00;100786.06;5370592;26;20000;-73
2024/04/10 03:10:39;;;;;;;;;;;;;;;8.49;100.00;100782.75;5371269;26;20784;-74
2024/04/10 03:13:07;;;;;;;9.55;1.20;;;;;;;8.43;100.00;100796.69;5370456;26;19925;-73
2024/04/10 03:15:32;;;;;;;8.13;1.13;;;;;;;8.45;100.00;100787.56;5370238;26;20066;-73
2024/04/10 03:17:57;;;;;;;4.75;1.65;;;;;;;8.38;100.00;100780.25;5372495;26;20000;-73
2024/04/10 03:20:23;;;;;;;2.80;1.23;;;;;;;8.52;100.00;100808.22;5371481;26;19992;-73
2024/04/10 03:22:49;;;;;;;13.77;2.05;;;;;;;8.35;100.00;100760.09;5371939;26;20150;-73
2024/04/10 03:25:15;;;;;;;10.00;1.27;;;;;;;8.41;100.00;100791.50;5371795;26;19992;-73
2024/04/10 03:27:41;;;;;;;8.02;0.93;;;;;;;8.43;100.00;100805.50;5372100;26;20004;-74
2024/04/10 03:30:07;;;;;;;11.95;1.17;;;;;;;8.44;100.00;100780.53;5369938;26;20464;-73
2024/04/10 03:32:33;;;;;;;8.50;1.02;;;;;;;8.49;100.00;100782.75;5372269;26;19996;-73
2024/04/10 03:34:58;;;;;;;11.45;2.20;;;;;;;8.33;100.00;100722.19;5371645;26;20077;-73
2024/04/10 03:37:23;;;;;;;13.77;1.27;;;;;;;8.47;100.00;100704.06;5369921;26;20065;-73
2024/04/10 03:39:50;;;;;;;12.73;3.17;;;;;;;8.45;100.00;100696.22;5366525;26;19992;-73
2024/04/10 03:42:16;;;;;;;10.40;1.50;;;;;;;8.43;100.00;100659.16;5371657;26;20647;-73
2024/04/10 03:44:41;;;;;;;4.13;0.90;;;;;;;8.43;100.00;100656.50;5371912;26;20000;-73
2024/04/10 03:47:07;;;;;;;8.10;1.10;;;;;;;8.30;100.00;100655.97;5371721;26;20337;-73
2024/04/10 03:49:32;;;;;;;5.00;1.73;;;;;;;8.33;100.00;100679.63;5372573;26;20000;-73
2024/04/10 03:51:58;;;;;;;3.08;0.93;;;;;;;8.30;100.00;100679.09;5370095;26;20674;-73
2024/04/10 03:54:23;;;;;;;6.37;1.00;;;;;;;8.39;100.00;100699.47;5372228;26;19996;-73
2024/04/10 03:56:49;;;;;;;5.43;1.00;;;;;;;8.39;100.00;100692.31;5372251;26;20996;-73
2024/04/10 03:59:14;;;;;;;9.83;1.10;;;;;;;8.45;100.00;100681.13;5372193;26;20018;-74
2024/04/10 04:01:41;;;;;;;5.78;0.90;;;;;;;8.49;100.00;100718.06;5371609;26;20494;-73
2024/04/10 04:04:07;;;;;;;8.73;1.20;;;;;;;8.38;100.00;100791.75;5369841;26;20008;-73
2024/04/10 04:06:32;;;;;;;5.13;1.20;;;;;;;8.42;100.00;100872.97;5372647;26;20331;-73
2024/04/10 04:08:58;;;;;;;5.78;1.17;;;;;;;8.38;100.00;100959.38;5370912;26;20083;-74
2024/04/10 04:11:24;;;;;;;8.43;1.35;;;;;;;8.38;100.00;101023.22;5372073;26;20022;-74
2024/04/10 04:13:49;;;;;;;8.98;1.08;;;;;;;8.45;100.00;101063.41;5372662;26;20000;-73
2024/04/10 04:16:14;;;;;;;6.33;2.03;;;;;;;8.43;100.00;101106.16;5371391;26;19992;-73
2024/04/10 04:18:40;;;;;;;9.97;2.03;;;;;;;8.28;100.00;101131.44;5370752;26;19996;-75
2024/04/10 04:21:06;;;;;;;12.02;1.63;;;;;;;8.26;100.00;101154.66;5339568;26;20003;-74
2024/04/10 04:23:31;;;;;;;8.73;1.52;;;;;;;8.21;100.00;101159.56;5369509;26;19996;-73
2024/04/10 04:25:57;;;;;;;9.23;1.30;;;;;;;8.33;100.00;101178.91;5370728;26;19996;-73
2024/04/10 04:28:22;;;;;;;9.50;2.50;;;;;;;8.30;100.00;101155.25;5371269;26;20004;-74
2024/04/10 04:30:48;;;;;;;4.22;1.13;;;;;;;8.19;100.00;101134.91;5370803;26;20007;-73
2024/04/10 04:33:14;;;;;;;8.52;1.33;;;;;;;8.22;100.00;101137.31;5369495;26;20328;-73
2024/04/10 04:35:39;;;;;;;11.90;2.35;;;;;;;8.19;100.00;101142.91;5371177;26;20000;-75
2024/04/10 04:38:05;;;;;;;7.83;1.33;;;;;;;8.34;100.00;101149.53;5371198;26;20040;-74
2024/04/10 04:40:31;;;;;;;11.85;2.00;;;;;;;8.11;100.00;101097.53;5370752;26;20011;-73
2024/04/10 04:43:02;;;;;;;17.40;1.52;;;;;;;8.12;100.00;101101.88;5370805;26;20451;-73
2024/04/10 04:45:28;;;;;;;11.82;1.35;;;;;;;8.19;100.00;101109.19;5370737;26;20019;-73
2024/04/10 04:47:54;;;;;;;7.03;1.40;;;;;;;8.31;100.00;101141.81;5371389;26;20867;-74
2024/04/10 04:50:19;;;;;;;12.00;1.80;;;;;;;8.21;100.00;101135.63;5370650;26;20242;-73
2024/04/10 04:52:44;;;;;;;14.67;2.27;;;;;;;8.19;100.00;101169.50;5369724;26;20000;-73
2024/04/10 04:55:11;;;;;;;8.33;1.73;;;;;;;8.05;100.00;101178.69;5370615;26;20074;-74
2024/04/10 04:57:36;;;;;;;9.07;1.42;;;;;;;8.16;100.00;101202.53;5371425;26;19996;-73
2024/04/10 05:00:11;;;;;;;21.80;2.75;;;;;;;8.45;100.00;101223.06;5369008;26;20441;-73
2024/04/10 05:02:43;;;;;;;12.57;2.00;;;;;;;8.63;100.00;101221.41;5356113;26;20008;-73
2024/04/10 05:05:13;;;;;;;13.82;2.47;;;;;;;8.27;100.00;101172.31;5362723;26;20019;-73
2024/04/10 05:07:39;;;;;;;10.98;1.88;;;;;;;8.68;100.00;101229.00;5365464;26;20008;-74
2024/04/10 05:10:05;;;;;;;7.80;1.55;;;;;;;8.80;100.00;101227.91;5368977;26;21008;-74
2024/04/10 05:12:30;;;;;;;14.65;2.33;;;;;;;8.64;100.00;101190.34;5356570;26;20012;-73
2024/04/10 05:14:56;;;;;;;15.43;3.33;;;;;;;8.69;100.00;101214.72;5368910;26;20016;-73
2024/04/10 05:17:21;;;;;;;11.63;2.40;;;;;;;8.68;100.00;101213.03;5370932;26;20015;-73
2024/04/10 05:19:47;;;;;;;12.63;1.80;;;;;;;8.62;100.00;101208.28;5370743;26;20234;-73
2024/04/10 05:22:13;;;;;;;14.88;3.67;;;;;;;8.48;100.00;101232.63;5370703;26;20336;-73
2024/04/10 05:24:39;;;;;;;17.60;2.83;;;;;;;8.46;100.00;101235.41;5370227;26;20004;-73
2024/04/10 05:27:05;;;;;;;10.13;2.63;;;;;;;8.44;100.00;101227.56;5370768;26;20004;-73
2024/04/10 05:29:30;;;;;;;18.20;1.85;;;;;;;8.45;100.00;101229.25;5370314;26;20005;-75
2024/04/10 05:31:58;;;;;;;16.60;2.80;;;;;;;8.54;100.00;101253.34;5342922;26;20610;-73
2024/04/10 05:34:23;;;;;;;8.38;2.13;;;;;;;8.88;100.00;101235.19;5373809;26;20010;-73
2024/04/10 05:36:49;;;;;;;14.27;2.63;;;;;;;9.11;100.00;101209.13;5372206;26;20004;-73
2024/04/10 05:39:25;;;;;;;9.60;1.92;;;;;;;9.20;100.00;101202.06;5374293;26;20023;-74
2024/04/10 05:41:51;;;;;;;;;;;;;;;9.19;100.00;101168.44;5374242;26;20000;-74
2024/04/10 05:44:17;;;;;;;9.55;2.17;;;;;;;9.05;100.00;101153.75;5373955;26;19932;-73
2024/04/10 05:46:43;;;;;;;16.80;3.58;;;;;;;8.79;100.00;101151.66;5374448;26;20377;-73
2024/04/10 05:49:10;;;;;;;14.05;2.10;;;;;;;9.00;100.00;101179.97;5374292;26;20011;-72
2024/04/10 05:51:35;;;;;;;15.30;2.20;;;;;;;8.76;100.00;101181.22;5372237;26;20010;-73
2024/04/10 05:54:01;;;;;;;15.40;2.47;;;;;;;8.72;100.00;101181.66;5371623;26;19996;-73
2024/04/10 05:56:26;;;;;;;13.03;2.33;;;;;;;8.79;100.00;101186.28;5372097;26;20360;-73
2024/04/10 05:58:52;;;;;;;18.30;2.58;;;;;;;8.88;100.00;101171.28;5372544;26;20306;-73
2024/04/10 06:01:17;;;;;;;19.63;2.83;;;;;;;9.01;100.00;101144.34;5371912;26;20027;-73
2024/04/10 06:03:46;;;;;;;8.13;2.07;;;;;;;8.98;100.00;101112.69;5374006;26;20375;-73
2024/04/10 06:06:13;;;;;;;8.75;3.00;;;;;;;9.21;100.00;101155.81;5368425;26;20000;-72
2024/04/10 06:08:39;;;;;;;10.88;2.22;;;;;;;9.23;100.00;101122.72;5371314;26;20012;-73
2024/04/10 06:11:05;;;;;;;12.20;2.78;;;;;;;9.16;100.00;101110.97;5371833;26;20037;-74
2024/04/10 06:13:32;;;;;;;19.10;2.83;;;;;;;9.31;100.00;101095.34;5371505;26;20004;-73
2024/04/10 06:16:01;;;;;;;9.57;2.00;;;;;;;9.12;100.00;101055.47;5341534;26;20758;-74
2024/04/10 06:18:27;;;;;;;18.25;3.60;;;;;;;9.20;100.00;101069.72;5371756;26;20078;-73
2024/04/10 06:21:00;;;;;;;16.08;2.55;;;;;;;9.16;100.00;101036.38;5371754;26;20004;-73
2024/04/10 06:23:28;;;;;;;15.15;2.80;;;;;;;9.19;100.00;101036.06;5371907;26;20004;-73
2024/04/10 06:25:54;;;;;;;9.80;2.10;;;;;;;9.08;100.00;101073.53;5373196;26;20436;-73
2024/04/10 06:28:19;;;;;;;13.05;2.35;;;;;;;9.04;100.00;101102.31;5371657;26;20046;-73
2024/04/10 06:30:45;;;;;;;11.00;2.58;;;;;;;9.13;100.00;101129.91;5371350;26;20020;-76
2024/04/10 06:33:14;;;;;;;16.53;4.13;;;;;;;9.43;100.00;101135.97;5371820;26;20439;-74
2024/04/10 06:35:42;;;;;;;9.88;2.00;;;;;;;9.26;100.00;101090.44;5341849;26;20569;-74
2024/04/10 06:38:08;;;;;;;13.10;1.90;;;;;;;9.59;100.00;101165.50;5373309;26;20078;-74
2024/04/10 06:40:33;;;;;;;18.67;4.03;;;;;;;9.41;100.00;101135.28;5358705;26;20000;-73
2024/04/10 06:42:58;;;;;;;16.33;3.00;;;;;;;9.23;100.00;101199.97;5372924;26;20015;-74
2024/04/10 06:45:24;;;;;;;19.00;3.00;;;;;;;9.25;100.00;101266.47;5371246;26;20298;-74
2024/04/10 06:47:49;;;;;;;15.27;2.13;;;;;;;9.30;100.00;101315.66;5373302;26;20004;-73
2024/04/10 06:50:15;;;;;;;19.17;3.70;;;;;;;10.34;100.00;101429.69;5372613;26;20000;-75
2024/04/10 06:52:40;;;;;;;15.03;2.73;;;;;;;10.56;100.00;101303.03;5373039;26;20617;-75
2024/04/10 06:55:06;;;;;;;10.17;2.13;;;;;;;10.69;100.00;101212.69;5369215;26;20655;-74
2024/04/10 06:57:32;;;;;;;;;;;;;;;10.47;100.00;101063.66;5373222;26;20015;-73
2024/04/10 07:00:02;;;;;;;20.75;2.72;;;;;;;11.14;100.00;101170.84;5366673;26;20244;-74
2024/04/10 07:02:28;;;;;;;12.25;2.42;;;;;;;11.32;100.00;101062.03;5364177;26;20459;-73
2024/04/10 07:04:53;;;;;;;12.05;2.47;;;;;;;10.68;100.00;100927.16;5368885;26;19996;-74
2024/04/10 07:07:18;;;;;;;16.97;2.70;;;;;;;9.83;100.00;100804.16;5359765;26;20079;-74
2024/04/10 07:09:44;;;;;;;11.40;2.57;;;;;;;10.06;100.00;101018.72;5366767;26;19997;-74
2024/04/10 07:12:09;;;;;;;9.10;2.50;;;;;;;10.20;100.00;101038.69;5368163;26;20015;-75
2024/04/10 07:14:36;;;;;;;14.25;2.78;;;;;;;10.26;100.00;101059.44;5370014;26;19996;-75
2024/04/10 07:17:04;;;;;;;14.18;2.72;;;;;;;10.07;100.00;100961.72;5394288;26;20028;-73
2024/04/10 07:19:34;;;;;;;13.88;2.83;;;;;;;10.31;100.00;101035.00;5371099;26;20008;-73
2024/04/10 07:22:03;;;;;;;16.77;3.45;;;;;;;10.42;100.00;100965.38;5369448;26;19996;-75
2024/04/10 07:24:28;;;;;;;16.15;2.92;;;;;;;10.72;100.00;100981.88;5370848;26;20004;-73
2024/04/10 07:26:53;;;;;;;12.87;2.27;;;;;;;11.73;100.00;100992.69;5372707;26;21136;-73
2024/04/10 07:29:19;;;;;;;13.00;3.37;;;;;;;11.67;100.00;100905.06;5372086;26;19996;-74
2024/04/10 07:31:44;;;;;;;15.17;2.87;;;;;;;11.28;100.00;100753.31;5372513;26;20360;-73
2024/04/10 07:34:14;;;;;;;8.97;3.07;;;;;;;11.37;100.00;100771.03;5368228;26;19992;-75
2024/04/10 07:36:41;;;;;;;11.60;2.05;;;;;;;11.20;100.00;100697.22;5363298;26;20004;-74
2024/04/10 07:39:08;;;;;;;11.85;2.15;;;;;;;11.03;100.00;100735.59;5362688;26;20005;-73
2024/04/10 07:41:33;;;;;;;12.55;2.03;;;;;;;10.67;100.00;100798.13;5364464;26;20073;-74
2024/04/10 07:43:59;;;;;;;12.90;2.10;;;;;;;10.07;100.00;100881.69;5366633;26;19999;-74
2024/04/10 07:46:24;;;;;;;11.50;2.07;;;;;;;9.96;100.00;101033.13;5362309;26;20007;-74
2024/04/10 07:48:55;;;;;;;16.47;2.50;;;;;;;9.83;100.00;101172.16;5363830;26;20605;-75
2024/04/10 07:51:21;;;;;;;14.52;4.13;;;;;;;9.60;100.00;101235.66;5358462;26;20334;-74
2024/04/10 07:53:47;;;;;;;;;;;;;;;8.88;100.00;101353.19;5363712;26;20000;-73
2024/04/10 07:56:13;;;;;;;15.98;3.53;;;;;;;8.85;100.00;101526.56;5357757;26;19926;-73
2024/04/10 07:58:39;;;;;;;8.07;2.25;;;;;;;8.90;100.00;101579.41;5368095;26;20462;-74
2024/04/10 08:01:05;;;;;;;11.13;3.30;;;;;;;9.02;100.00;101647.63;5367856;26;20008;-75
2024/04/10 08:03:31;;;;;;;15.65;1.90;;;;;;;8.94;100.00;101643.91;5363950;26;20004;-74
2024/04/10 08:05:57;;;;;;;8.90;2.22;;;;;;;9.00;100.00;101625.59;5368972;26;20324;-74
2024/04/10 08:08:23;;;;;;;8.25;3.30;;;;;;;8.97;100.00;101619.69;5360519;26;20001;-74
2024/04/10 08:11:00;;;;;;;6.78;1.52;;;;;;;9.31;100.00;101670.91;5367863;26;20522;-74
2024/04/10 08:13:27;;;;;;;12.88;2.97;;;;;;;9.59;100.00;101637.38;5359887;26;20004;-74
2024/04/10 08:15:59;;;;;;;8.38;1.73;;;;;;;10.32;100.00;101691.41;5371564;26;20014;-74
2024/04/10 08:18:31;;;;;;;8.10;1.95;;;;;;;10.96;100.00;101666.00;5341070;26;20036;-75
2024/04/10 08:20:59;;;;;;;8.95;1.88;;;;;;;11.05;100.00;101572.56;5370922;26;20024;-74
2024/04/10 08:23:25;;;;;;;14.38;2.83;;;;;;;10.21;100.00;101355.25;5364884;26;20558;-73
2024/04/10 08:25:50;;;;;;;14.25;2.95;;;;;;;9.99;100.00;101295.06;5369580;26;20027;-74
2024/04/10 08:28:17;;;;;;;11.03;2.47;;;;;;;10.00;100.00;101334.09;5371445;26;20359;-75
2024/04/10 08:30:42;;;;;;;17.35;3.35;;;;;;;10.07;100.00;101383.22;5371697;26;20020;-73
2024/04/10 08:33:08;;;;;;;14.20;3.23;;;;;;;10.10;100.00;101332.25;5372141;26;20011;-74
2024/04/10 08:35:34;;;;;;;21.03;4.07;;;;;;;9.86;100.00;101350.56;5369605;26;20593;-73
2024/04/10 08:37:59;;;;;;;15.35;3.42;;;;;;;10.16;100.00;101480.28;5369872;26;20012;-75
2024/04/10 08:40:25;;;;;;;15.83;2.87;;;;;;;9.69;100.00;101339.66;5371197;26;20518;-75
2024/04/10 08:42:52;;;;;;;18.83;2.92;;;;;;;9.92;100.00;101352.66;5369591;26;20004;-74
2024/04/10 08:45:19;;;;;;;14.00;2.78;;;;;;;10.02;100.00;101422.84;5369496;26;20391;-73
2024/04/10 08:47:45;;;;;;;17.45;2.90;;;;;;;10.23;100.00;101462.69;5371822;26;20004;-74
2024/04/10 08:50:11;;;;;;;19.70;2.83;;;;;;;10.43;100.00;101407.47;5364890;26;20012;-73
2024/04/10 08:52:39;;;;;;;14.27;2.87;;;;;;;10.59;100.00;101347.28;5371463;26;20036;-74
2024/04/10 08:55:05;;;;;;;18.60;3.47;;;;;;;10.66;100.00;101213.00;5371067;26;20004;-74
2024/04/10 08:57:30;;;;;;;15.70;3.40;;;;;;;10.91;100.00;101189.19;5371132;26;20000;-74
2024/04/10 08:59:55;;;;;;;13.67;2.23;;;;;;;11.18;100.00;101166.88;5371476;26;20070;-74
2024/04/10 09:02:22;;;;;;;18.23;3.37;;;;;;;10.83;100.00;100919.38;5370953;26;20032;-73
2024/04/10 09:04:47;;;;;;;21.77;3.10;;;;;;;10.87;100.00;100884.16;5372958;26;20000;-74
2024/04/10 09:07:17;;;;;;;12.87;2.23;;;;;;;10.84;100.00;100748.28;5372651;26;20019;-75
2024/04/10 09:09:43;;;;;;;13.70;2.22;;;;;;;10.62;100.00;100738.22;5374683;26;20015;-74
2024/04/10 09:12:08;;;;;;;12.37;2.67;;;;;;;10.48;100.00;100708.47;5374185;26;19996;-74
2024/04/10 09:14:33;;;;;;;11.90;1.80;;;;;;;10.77;100.00;100904.81;5374324;26;20238;-74
2024/04/10 09:17:03;;;;;;;17.93;2.97;;;;;;;11.14;100.00;100912.50;5374233;26;20872;-74
2024/04/10 09:19:29;;;;;;;11.90;3.17;;;;;;;11.52;100.00;100920.06;5374170;26;20000;-74
2024/04/10 09:21:56;;;;;;;13.47;2.40;;;;;;;11.87;100.00;100837.84;5374767;26;20027;-74
2024/04/10 09:24:25;;;;;;;12.25;2.20;;;;;;;12.18;100.00;100800.56;5369706;26;20277;-73
2024/04/10 09:26:51;;;;;;;14.13;2.35;;;;;;;12.40;100.00;100743.56;5367771;26;20000;-74
2024/04/10 09:29:19;;;;;;;8.00;2.17;;;;;;;12.01;100.00;100572.31;5373318;26;20014;-73
2024/04/10 09:31:47;;;;;;;9.43;3.03;;;;;;;12.14;100.00;100531.59;5372545;26;20879;-76
2024/04/10 09:34:17;;;;;;;12.20;2.10;;;;;;;11.78;100.00;100615.88;5372395;26;20343;-74
2024/04/10 09:36:44;;;;;;;14.02;2.55;;;;;;;12.13;100.00;100611.06;5374301;26;20008;-74
2024/04/10 09:39:10;;;;;;;10.13;2.28;;;;;;;12.42;100.00;100529.22;5374084;26;20000;-74
2024/04/10 09:41:36;;;;;;;12.93;2.35;;;;;;;12.67;100.00;100415.50;5374156;26;20019;-75
2024/04/10 09:44:06;;;;;;;16.73;2.63;;;;;;;13.14;100.00;100383.13;5367155;26;20020;-74
2024/04/10 09:46:37;;;;;;;7.90;2.38;;;;;;;13.62;100.00;100378.91;5372439;26;20019;-74
2024/04/10 09:49:13;;;;;;;12.38;2.03;;;;;;;14.48;100.00;100447.81;5367490;26;20004;-75
2024/04/10 09:51:40;;;;;;;13.57;2.45;;;;;;;14.17;100.00;99884.44;5382851;26;20004;-74
2024/04/10 09:54:07;;;;;;;8.38;2.55;;;;;;;13.96;100.00;100033.88;5373914;26;20081;-74
2024/04/10 09:56:35;;;;;;;14.70;2.03;;;;;;;13.90;100.00;100191.13;5372040;26;20000;-74
2024/04/10 09:59:03;;;;;;;18.45;2.95;;;;;;;13.44;100.00;100012.03;5372092;26;20019;-75
2024/04/10 10:01:29;;;;;;;11.32;2.70;;;;;;;13.53;100.00;100119.94;5340552;26;20371;-74
2024/04/10 10:03:58;;;;;;;9.18;2.40;;;;;;;13.86;100.00;100109.41;5373951;26;20544;-75
2024/04/10 10:06:31;;;;;;;6.18;2.53;;;;;;;14.03;100.00;100023.16;5368467;26;20001;-75
2024/04/10 10:08:57;;;;;;;8.68;2.20;;;;;;;14.29;100.00;100009.78;5368127;26;20000;-75
2024/04/10 10:11:23;;;;;;;8.07;2.20;;;;;;;13.96;100.00;99843.34;5363712;26;20069;-74
2024/04/10 10:14:04;;;;;;;14.50;2.20;;;;;;;13.94;100.00;99854.28;5373856;26;20015;-75
2024/04/10 10:16:33;;;;;;;12.32;2.55;;;;;;;13.71;99.87;99802.91;5398051;26;20000;-74
2024/04/10 10:19:00;;;;;;;11.80;2.58;;;;;;;13.19;99.32;99719.50;5373077;26;20044;-74
2024/04/10 10:21:27;;;;;;;14.68;2.70;;;;;;;12.86;100.00;99843.50;5373354;26;20538;-75
2024/04/10 10:23:58;;;;;;;10.13;2.47;;;;;;;12.91;100.00;100126.06;5373678;26;20027;-74
2024/04/10 10:26:23;;;;;;;9.32;2.67;;;;;;;13.66;100.00;100372.16;5368724;26;20109;-74
2024/04/10 10:28:49;;;;;;;7.43;2.38;;;;;;;14.88;100.00;100419.34;5363630;26;20000;-74
2024/04/10 10:31:19;;;;;;;12.35;2.15;;;;;;;15.35;96.88;100104.88;5358466;26;20047;-75
2024/04/10 10:33:45;;;;;;;8.57;2.22;;;;;;;15.76;92.82;99939.63;5354970;26;20513;-74
2024/04/10 10:36:13;;;;;;;14.32;2.33;;;;;;;16.50;90.12;99902.19;5363163;26;20004;-74
2024/04/10 10:38:40;;;;;;;9.40;2.55;;;;;;;16.16;88.09;99753.56;5367184;26;20015;-74
2024/04/10 10:41:10;;;;;;;7.72;2.47;;;;;;;16.68;86.14;99835.66;5372355;26;20011;-74
2024/04/10 10:43:36;;;;;;;11.55;2.38;;;;;;;17.79;79.40;99524.16;5372154;26;20398;-75
2024/04/10 10:46:03;;;;;;;7.78;2.72;;;;;;;17.89;78.69;99592.72;5370602;26;20004;-75
2024/04/10 10:48:28;;;;;;;8.77;2.58;;;;;;;17.46;73.57;99126.38;5371502;26;20008;-74
2024/04/10 10:50:54;;;;;;;10.23;2.33;;;;;;;16.12;73.41;98953.56;5368208;26;20480;-74
2024/04/10 10:53:21;;;;;;;7.65;2.30;;;;;;;15.76;76.37;99309.97;5363158;26;20239;-75
2024/04/10 10:55:59;;;;;;;7.80;2.45;;;;;;;15.70;77.24;99445.38;5372698;26;20724;-74
2024/04/10 10:58:25;;;;;;;9.40;2.50;;;;;;;16.43;75.97;99560.94;5371549;26;20065;-75
2024/04/10 11:00:51;;;;;;;10.20;2.47;;;;;;;16.88;73.58;99431.13;5372915;26;20443;-75
2024/04/10 11:03:17;;;;;;;;;;;;;;;16.77;73.38;99445.38;5373265;26;20000;-75
2024/04/10 11:05:43;;;;;;;12.55;2.13;;;;;;;16.27;72.79;99327.31;5372885;26;20274;-74
2024/04/10 11:08:09;;;;;;;10.90;2.72;;;;;;;16.96;70.80;99332.06;5342274;26;20000;-74
2024/04/10 11:10:34;;;;;;;9.90;2.60;;;;;;;15.93;71.33;99178.22;5370701;26;20011;-75
2024/04/10 11:13:07;;;;;;;13.90;2.80;;;;;;;16.34;72.85;99578.50;5366384;26;20004;-75
2024/04/10 11:15:42;;;;;;;11.10;2.72;;;;;;;16.17;71.91;99387.13;5366752;26;20078;-74
2024/04/10 11:18:08;;;;;;;15.90;3.00;;;;;;;16.72;71.94;99601.59;5370988;26;20004;-75
2024/04/10 11:20:34;;;;;;;;;;;;;;;16.69;73.31;99734.06;5371192;26;20419;-74